Time;durP1;ratioP1;P1;durP2;ratioP2;P2;SDS_P1;SDS_P2;PMS_P1;PMS_P2;Temp;Humidity;BMP_temperature;BMP_pressure;BME280_temperature;BME280_humidity;BME280_pressure;Samples;Min_cycle;Max_cycle;Signal;HPM_P1;HPM_P2
2022/03/03 00:01:21;;;;;;;45.20;21.60;;;3.70;44.30;;;1.91;47.61;101913.06;8456098;27;20126;-84
2022/03/03 00:05:43;;;;;;;41.45;20.52;;;3.60;44.20;;;1.64;47.51;101871.88;8452917;27;20114;-84
2022/03/03 00:10:06;;;;;;;39.83;18.50;;;3.40;44.20;;;1.77;47.68;101892.47;8454244;28;20035;-84
2022/03/03 00:14:28;;;;;;;38.03;18.48;;;3.50;44.30;;;1.73;47.75;101890.75;8458589;28;20121;-84
2022/03/03 00:18:50;;;;;;;36.10;16.48;;;3.40;44.40;;;1.31;47.77;101822.09;8477670;28;20125;-84
2022/03/03 00:23:11;;;;;;;27.15;14.98;;;3.40;44.50;;;1.72;47.28;101888.16;8486265;28;20118;-84
2022/03/03 00:27:34;;;;;;;34.55;18.10;;;3.40;44.50;;;1.63;47.68;101871.00;8474240;27;20114;-84
2022/03/03 00:31:55;;;;;;;42.28;19.35;;;3.40;44.50;;;1.68;47.77;101884.75;8464396;28;20122;-84
2022/03/03 00:36:17;;;;;;;35.55;18.00;;;3.40;44.60;;;1.66;47.69;101877.88;8473136;27;20049;-84
2022/03/03 00:40:39;;;;;;;33.60;16.33;;;3.30;44.60;;;1.55;47.89;101888.16;8478580;28;20110;-84
2022/03/03 00:45:01;;;;;;;26.60;15.50;;;3.30;45.00;;;1.48;47.59;101882.13;8471643;27;20168;-84
2022/03/03 00:49:23;;;;;;;24.27;13.57;;;3.20;44.60;;;1.40;47.71;101883.84;8463566;28;20642;-83
2022/03/03 00:53:45;;;;;;;19.05;11.88;;;3.20;44.60;;;1.19;47.55;101845.22;8482776;27;20519;-83
2022/03/03 00:58:07;;;;;;;22.27;12.48;;;3.10;44.70;;;1.11;47.84;101840.09;8470176;27;20551;-82
2022/03/03 01:02:28;;;;;;;19.17;10.93;;;3.10;44.80;;;1.16;47.61;101861.53;8490674;27;20114;-82
2022/03/03 01:06:50;;;;;;;19.27;10.38;;;3.00;44.80;;;1.24;47.91;101887.25;8499189;27;20110;-82
2022/03/03 01:11:12;;;;;;;17.95;10.85;;;3.00;44.80;;;1.26;47.45;101886.41;8479805;27;20547;-82
2022/03/03 01:15:34;;;;;;;17.40;10.55;;;2.90;44.90;;;1.19;48.08;101856.41;8470086;27;20041;-82
2022/03/03 01:19:55;;;;;;;17.73;10.88;;;2.80;44.90;;;1.15;47.96;101858.94;8468553;27;20117;-82
2022/03/03 01:24:17;;;;;;;14.88;9.57;;;2.90;45.00;;;0.92;48.21;101817.72;8464524;27;20125;-82
2022/03/03 01:28:39;;;;;;;18.52;10.35;;;2.90;45.10;;;1.16;48.24;101853.81;8468506;27;20114;-81
2022/03/03 01:33:00;;;;;;;18.40;11.15;;;2.80;45.00;;;1.15;48.07;101848.66;8494641;27;20118;-81
2022/03/03 01:37:22;;;;;;;16.42;10.02;;;2.90;45.10;;;0.91;48.31;101805.75;8468516;27;20107;-81
2022/03/03 01:41:44;;;;;;;13.95;10.10;;;2.90;45.10;;;1.14;48.03;101844.38;8472960;27;20115;-81
2022/03/03 01:46:06;;;;;;;17.73;10.68;;;2.90;45.10;;;0.90;48.06;101796.31;8485536;27;20121;-81
2022/03/03 01:50:27;;;;;;;19.88;11.35;;;2.90;45.10;;;1.15;48.27;101836.66;8477250;27;20109;-81
2022/03/03 01:54:50;;;;;;;19.80;10.23;;;2.90;45.20;;;0.82;48.08;101783.44;8456629;27;20031;-82
2022/03/03 01:59:12;;;;;;;21.48;11.05;;;2.80;45.20;;;1.04;48.35;101823.78;8476645;27;20118;-81
2022/03/03 02:03:34;;;;;;;26.17;12.35;;;2.70;45.20;;;1.02;48.01;101824.63;8472405;27;20717;-81
2022/03/03 02:07:57;;;;;;;23.33;12.43;;;2.80;45.20;;;0.98;48.20;101826.34;8474202;27;20137;-81
2022/03/03 02:12:19;;;;;;;21.98;12.15;;;2.80;45.20;;;1.04;48.42;101830.63;8442450;27;20118;-81
2022/03/03 02:16:40;;;;;;;20.30;12.10;;;2.80;45.20;;;0.90;48.24;101806.59;8471709;27;20118;-81
2022/03/03 02:21:03;;;;;;;19.60;11.63;;;2.80;45.20;;;0.95;48.54;101810.91;8455338;27;20113;-81
2022/03/03 02:25:26;;;;;;;21.90;11.48;;;2.70;45.20;;;1.04;48.59;101825.50;8467925;27;20114;-81
2022/03/03 02:29:49;;;;;;;26.52;12.90;;;2.80;45.30;;;0.99;48.26;101819.47;8460741;27;20110;-80
2022/03/03 02:34:11;;;;;;;22.70;12.85;;;2.80;45.40;;;0.96;48.26;101830.59;8476411;27;20057;-80
2022/03/03 02:38:34;;;;;;;17.33;11.00;;;2.70;45.30;;;0.79;48.47;101802.28;8470026;27;20128;-80
2022/03/03 02:42:55;;;;;;;19.00;10.70;;;2.70;45.40;;;0.76;48.52;101794.59;8459099;27;20516;-80
2022/03/03 02:47:17;;;;;;;19.33;10.38;;;2.50;45.40;;;0.92;48.23;101802.31;8480509;27;20114;-81
2022/03/03 02:51:39;;;;;;;19.58;10.00;;;2.70;45.50;;;0.84;48.57;101803.16;8478136;27;20117;-80
2022/03/03 02:56:01;;;;;;;18.05;10.43;;;2.70;45.60;;;0.62;48.45;101765.38;8472855;27;20469;-81
2022/03/03 03:00:31;;;;;;;19.50;10.57;;;2.50;45.60;;;0.80;48.54;101788.56;8460164;27;20110;-81
2022/03/03 03:04:52;;;;;;;17.38;10.13;;;2.50;45.60;;;0.81;48.71;101768.84;8470326;27;20165;-81
2022/03/03 03:09:14;;;;;;;16.17;9.27;;;2.70;45.60;;;0.76;48.27;101770.59;8483810;27;20122;-81
2022/03/03 03:13:36;;;;;;;17.13;9.77;;;2.60;45.60;;;0.65;48.85;101744.88;8467496;27;20117;-80
2022/03/03 03:18:12;;;;;;;13.82;9.15;;;2.60;45.60;;;0.73;48.79;101752.56;8460728;27;20118;-81
2022/03/03 03:22:37;;;;;;;;;;;2.60;45.70;;;0.64;48.67;101720.84;8477522;27;20106;-80
2022/03/03 03:26:58;;;;;;;16.85;8.75;;;2.60;45.50;;;0.78;48.91;101749.13;8440069;27;20005;-81
2022/03/03 03:31:20;;;;;;;15.50;9.10;;;2.60;45.50;;;0.76;48.99;101748.31;8457333;27;20114;-81
2022/03/03 03:35:42;;;;;;;15.70;9.70;;;2.90;45.70;;;0.72;48.85;101738.84;8470340;27;20502;-80
2022/03/03 03:40:08;;;;;;;14.82;9.68;;;2.80;45.70;;;0.71;48.78;101726.03;8476637;27;20126;-81
2022/03/03 03:44:30;;;;;;;18.70;9.95;;;2.60;45.70;;;0.63;48.73;101713.16;8478187;27;20567;-80
2022/03/03 03:48:52;;;;;;;16.58;10.00;;;2.50;45.60;;;0.68;48.83;101724.31;8463666;28;20114;-80
2022/03/03 03:53:13;;;;;;;17.92;10.80;;;2.50;45.60;;;0.69;49.08;101702.88;8450796;27;20550;-80
2022/03/03 03:57:35;;;;;;;22.17;11.45;;;2.40;45.60;;;0.71;48.75;101710.59;8478735;28;20473;-80
2022/03/03 04:01:57;;;;;;;17.52;10.27;;;2.50;45.70;;;0.69;48.94;101717.44;8460782;27;20095;-81
2022/03/03 04:06:19;;;;;;;17.90;10.52;;;2.80;45.90;;;0.65;48.64;101706.31;8489877;27;20110;-81
2022/03/03 04:10:41;;;;;;;18.85;10.70;;;2.50;45.80;;;0.43;48.84;101670.28;8474331;28;20118;-81
2022/03/03 04:15:03;;;;;;;19.88;10.88;;;2.40;45.70;;;0.66;49.04;101713.16;8468263;27;20126;-80
2022/03/03 04:19:26;;;;;;;17.92;10.55;;;2.40;45.70;;;0.51;49.17;101687.41;8461407;28;20563;-81
2022/03/03 04:23:47;;;;;;;19.00;10.27;;;2.50;45.80;;;0.62;48.77;101703.72;8465245;28;20118;-81
2022/03/03 04:28:09;;;;;;;17.27;10.23;;;2.40;46.10;;;0.44;48.98;101669.44;8470700;27;20110;-81
2022/03/03 04:32:31;;;;;;;16.73;10.77;;;2.50;45.80;;;0.61;49.19;101710.56;8459522;27;20403;-81
2022/03/03 04:36:53;;;;;;;21.83;11.52;;;2.40;45.90;;;0.52;48.80;101720.00;8463410;27;20050;-80
2022/03/03 04:41:16;;;;;;;21.25;11.80;;;2.40;45.90;;;0.48;49.18;101713.13;8493292;27;20109;-80
2022/03/03 04:45:37;;;;;;;17.67;10.98;;;2.30;45.90;;;0.41;49.17;101718.25;8475719;27;20042;-81
2022/03/03 04:49:59;;;;;;;16.52;11.18;;;2.30;46.00;;;0.32;48.92;101704.50;8476718;27;20440;-80
2022/03/03 04:54:21;;;;;;;20.17;12.02;;;2.10;45.90;;;0.37;48.43;101737.06;8481244;27;20115;-80
2022/03/03 04:58:44;;;;;;;22.83;11.90;;;2.20;46.00;;;0.27;49.30;101735.34;8479163;27;20035;-80
2022/03/03 05:03:06;;;;;;;18.08;10.30;;;2.10;46.20;;;0.15;49.24;101717.28;8455798;27;20110;-81
2022/03/03 05:07:28;;;;;;;17.25;10.25;;;2.00;46.10;;;0.18;49.06;101725.84;8449924;27;20031;-82
2022/03/03 05:11:50;;;;;;;19.38;10.23;;;1.80;46.00;;;0.14;49.15;101723.28;8452122;27;20350;-81
2022/03/03 05:16:11;;;;;;;17.02;10.40;;;2.00;46.20;;;0.04;49.19;101690.72;8478303;27;20031;-81
2022/03/03 05:20:33;;;;;;;16.77;9.90;;;2.00;46.20;;;0.08;49.23;101707.84;8456726;27;20037;-81
2022/03/03 05:24:55;;;;;;;16.20;9.45;;;1.90;46.30;;;0.12;49.15;101715.56;8445842;27;20039;-81
2022/03/03 05:29:17;;;;;;;19.50;10.60;;;1.80;46.30;;;0.13;49.34;101703.59;8447286;27;20049;-88
2022/03/03 05:33:39;;;;;;;16.95;10.05;;;1.90;46.20;;;0.08;49.01;101684.72;8442300;27;20403;-82
2022/03/03 05:38:01;;;;;;;17.45;10.52;;;1.90;46.20;;;-0.02;49.24;101664.16;8435630;27;20492;-82
2022/03/03 05:42:24;;;;;;;17.60;10.18;;;1.80;46.10;;;0.13;49.03;101675.34;8432692;27;20045;-82
2022/03/03 05:46:48;;;;;;;16.88;9.90;;;1.90;46.20;;;-0.14;49.21;101650.41;8477626;27;20114;-84
2022/03/03 05:51:10;;;;;;;14.52;9.85;;;1.90;46.20;;;-0.07;49.54;101671.00;8468850;27;20118;-83
2022/03/03 05:55:37;;;;;;;16.88;10.30;;;1.90;46.10;;;-0.05;49.35;101665.88;8455872;27;20031;-84
2022/03/03 06:00:10;;;;;;;18.02;10.68;;;1.70;46.10;;;-0.06;49.22;101664.16;8455006;27;20554;-84
2022/03/03 06:04:38;;;;;;;15.43;9.73;;;1.80;46.20;;;-0.27;49.27;101645.25;8493151;27;20114;-84
2022/03/03 06:09:14;;;;;;;21.23;11.07;;;1.80;46.20;;;-0.13;49.29;101708.63;8480524;27;20122;-89
2022/03/03 06:13:40;;;;;;;19.48;10.98;;;1.60;46.40;;;-0.13;49.18;101714.63;8477510;27;20539;-85
2022/03/03 06:18:02;;;;;;;17.48;9.55;;;1.70;46.30;;;-0.29;49.48;101711.09;8472930;27;20138;-83
2022/03/03 06:22:24;;;;;;;16.35;9.23;;;1.70;46.40;;;-0.38;49.21;101712.75;8466405;27;20512;-83
2022/03/03 06:26:48;;;;;;;15.68;9.60;;;1.50;46.40;;;-0.32;49.54;101723.06;8452447;27;20115;-84
2022/03/03 06:31:10;;;;;;;15.65;10.10;;;1.60;46.50;;;-0.40;49.57;101694.81;8470256;27;20260;-83
2022/03/03 06:35:35;;;;;;;16.95;10.23;;;1.80;46.50;;;-0.44;48.99;101703.31;8472876;27;20122;-83
2022/03/03 06:39:57;;;;;;;18.60;9.98;;;1.50;46.40;;;-0.24;49.41;101735.09;8470494;27;20141;-83
2022/03/03 06:44:19;;;;;;;15.15;9.25;;;1.50;46.50;;;-0.22;49.49;101750.47;8481785;27;20117;-84
2022/03/03 06:48:41;;;;;;;18.15;9.82;;;1.60;46.60;;;-0.67;49.81;101685.22;8464120;27;20118;-83
2022/03/03 06:53:05;;;;;;;17.80;9.68;;;1.50;46.70;;;-0.27;49.54;101726.50;8471666;27;20043;-85
2022/03/03 06:57:29;;;;;;;16.70;10.27;;;1.50;46.70;;;-0.21;49.64;101734.25;8486488;27;20039;-85
2022/03/03 07:01:52;;;;;;;16.23;10.15;;;1.80;46.90;;;-0.18;49.81;101735.97;8459028;27;20118;-83
2022/03/03 07:06:14;;;;;;;19.13;9.85;;;1.80;46.90;;;-0.01;49.73;101763.44;8457244;27;20122;-83
2022/03/03 07:10:37;;;;;;;22.65;9.85;;;1.60;47.00;;;0.04;49.79;101766.03;8473406;27;20122;-84
2022/03/03 07:14:58;;;;;;;20.92;10.32;;;1.90;47.30;;;-0.02;49.80;101748.91;8470405;27;20119;-87
2022/03/03 07:19:26;;;;;;;18.35;9.98;;;2.00;47.50;;;0.12;50.10;101755.81;8469970;27;20118;-84
2022/03/03 07:24:02;;;;;;;18.27;10.13;;;2.00;47.50;;;0.24;50.20;101784.09;8483391;27;20463;-82
2022/03/03 07:28:27;;;;;;;21.17;11.43;;;2.10;47.80;;;0.20;50.08;101736.16;8448218;27;20114;-78
2022/03/03 07:33:39;;;;;;;27.75;14.80;;;2.10;48.10;;;0.22;50.18;101739.59;8468002;27;20456;-77
2022/03/03 07:38:15;;;;;;;28.60;15.00;;;2.20;48.90;;;0.37;50.34;101765.31;8464647;27;20141;-82
2022/03/03 07:42:37;;;;;;;30.58;13.48;;;2.30;49.20;;;0.56;50.47;101763.66;8457223;27;20539;-83
2022/03/03 07:47:00;;;;;;;27.35;16.15;;;2.40;48.90;;;0.47;50.25;101747.38;8456204;27;20119;-82
2022/03/03 07:51:23;;;;;;;28.00;14.70;;;2.40;49.80;;;0.69;50.27;101772.28;8466928;27;20039;-84
2022/03/03 07:55:54;;;;;;;26.67;13.80;;;2.40;49.60;;;0.61;50.25;101754.25;8472601;27;20449;-83
2022/03/03 08:00:17;;;;;;;31.55;15.02;;;2.60;49.30;;;0.44;50.62;101723.38;8476726;27;20126;-83
2022/03/03 08:04:40;;;;;;;26.83;13.23;;;2.60;49.40;;;0.82;50.36;101778.31;8480060;27;20118;-84
2022/03/03 08:09:03;;;;;;;26.40;12.55;;;2.80;49.50;;;0.84;50.88;101777.47;8477530;27;20130;-84
2022/03/03 08:13:28;;;;;;;28.67;14.75;;;2.60;48.40;;;0.80;50.95;101775.72;8465647;27;20113;-83
2022/03/03 08:17:51;;;;;;;25.30;14.10;;;2.80;49.50;;;0.59;50.79;101743.09;8492086;27;20035;-83
2022/03/03 08:22:14;;;;;;;27.65;13.10;;;2.80;49.30;;;0.93;50.90;101791.19;8478409;27;20352;-84
2022/03/03 08:26:39;;;;;;;36.10;16.92;;;2.90;49.30;;;0.91;51.12;101780.03;8468394;27;20119;-84
2022/03/03 08:31:07;;;;;;;29.85;14.82;;;2.90;49.90;;;0.98;51.32;101797.19;8469516;27;20126;-84
2022/03/03 08:35:37;;;;;;;29.50;14.20;;;2.90;50.60;;;0.97;51.27;101785.19;8459227;27;20041;-84
2022/03/03 08:40:01;;;;;;;24.58;12.82;;;3.00;50.60;;;1.08;50.99;101796.31;8469065;27;20125;-84
2022/03/03 08:44:32;;;;;;;24.52;13.10;;;2.90;50.60;;;1.14;51.35;101800.66;8466913;27;20110;-83
2022/03/03 08:49:00;;;;;;;22.38;10.57;;;3.00;50.90;;;1.15;51.27;101795.50;8457964;27;20464;-85
2022/03/03 08:53:22;;;;;;;28.55;14.23;;;3.10;50.50;;;1.15;51.32;101792.91;8485256;27;20436;-83
2022/03/03 08:57:44;;;;;;;24.90;12.45;;;3.20;51.60;;;1.20;51.27;101798.06;8478242;27;20118;-84
2022/03/03 09:02:06;;;;;;;18.55;10.20;;;3.20;50.90;;;0.67;51.17;101704.56;8480165;27;20126;-84
2022/03/03 09:06:28;;;;;;;27.40;12.40;;;3.20;50.50;;;1.28;51.71;101806.66;8474147;27;20118;-84
2022/03/03 09:10:50;;;;;;;27.88;12.52;;;3.20;50.70;;;1.43;51.51;101826.38;8466390;27;20117;-84
2022/03/03 09:15:12;;;;;;;17.35;9.35;;;3.20;51.20;;;1.42;51.53;101807.50;8459125;27;20042;-83
2022/03/03 09:19:34;;;;;;;16.08;9.25;;;3.30;50.80;;;1.47;51.51;101810.09;8472611;27;20117;-89
2022/03/03 09:23:56;;;;;;;19.95;10.70;;;3.20;50.90;;;1.43;51.53;101790.34;8456629;27;20448;-85
2022/03/03 09:28:18;;;;;;;15.68;9.70;;;3.40;51.20;;;1.43;51.72;101792.91;8456587;27;20522;-85
2022/03/03 09:32:40;;;;;;;17.40;10.25;;;3.50;50.60;;;1.58;51.51;101810.94;8443864;27;20126;-85
2022/03/03 09:37:02;;;;;;;22.98;10.77;;;3.40;51.00;;;1.62;52.01;101815.25;8477441;27;20042;-85
2022/03/03 09:41:24;;;;;;;22.10;12.00;;;3.60;51.40;;;1.69;51.77;101819.50;8466153;27;20586;-86
2022/03/03 09:45:46;;;;;;;18.63;10.98;;;3.60;51.60;;;1.54;51.81;101792.09;8459400;27;20122;-83
2022/03/03 09:50:08;;;;;;;22.67;10.38;;;3.60;50.60;;;1.73;52.21;101818.66;8485931;27;20099;-87
2022/03/03 09:54:29;;;;;;;15.13;8.25;;;3.70;50.70;;;1.77;51.92;101796.34;8491805;27;20132;-83
2022/03/03 09:58:51;;;;;;;15.98;8.63;;;3.70;51.00;;;1.96;51.87;101830.63;8461906;27;20497;-82
2022/03/03 10:03:16;;;;;;;12.20;7.15;;;3.70;51.00;;;1.90;52.13;101803.19;8473091;27;20119;-81
2022/03/03 10:07:38;;;;;;;14.70;7.93;;;3.80;50.80;;;2.15;52.18;101827.16;8481634;27;20587;-83
2022/03/03 10:12:06;;;;;;;15.18;7.32;;;3.90;50.60;;;2.25;52.11;101819.41;8457780;27;20201;-85
2022/03/03 10:16:30;;;;;;;11.85;6.40;;;4.00;50.70;;;2.16;52.02;101802.25;8465801;27;20129;-85
2022/03/03 10:21:04;;;;;;;13.48;7.55;;;4.10;50.50;;;2.25;52.39;101798.81;8467055;27;20122;-82
2022/03/03 10:25:39;;;;;;;20.15;10.10;;;4.20;51.00;;;2.52;52.10;101834.78;8459360;27;20122;-83
2022/03/03 10:30:03;;;;;;;21.25;10.13;;;4.30;51.20;;;2.56;52.50;101815.00;8478868;27;20835;-82
2022/03/03 10:34:32;;;;;;;17.85;8.27;;;4.40;51.20;;;2.57;52.50;101817.56;8474798;27;20134;-83
2022/03/03 10:39:05;;;;;;;15.80;8.07;;;4.50;51.40;;;2.51;52.44;101802.13;8463340;27;20031;-86
2022/03/03 10:43:26;;;;;;;15.60;7.63;;;4.60;51.20;;;2.71;51.99;101814.94;8490997;27;20467;-83
2022/03/03 10:48:03;;;;;;;20.30;9.02;;;4.60;50.90;;;2.83;52.63;101826.88;8466416;27;20118;-84
2022/03/03 10:52:33;;;;;;;18.10;9.57;;;4.60;51.60;;;2.85;52.22;101815.69;8470258;27;20121;-83
2022/03/03 10:56:55;;;;;;;18.95;10.55;;;4.60;51.40;;;2.88;52.53;101810.50;8479678;27;20119;-82
2022/03/03 11:01:26;;;;;;;22.48;10.80;;;4.80;51.00;;;2.96;52.40;101820.78;8458646;27;20027;-87
2022/03/03 11:05:48;;;;;;;23.48;11.52;;;4.90;51.40;;;3.07;52.72;101826.75;8465214;27;20118;-85
2022/03/03 11:10:20;;;;;;;16.48;9.70;;;4.90;52.20;;;3.13;52.60;101832.72;8473790;27;20129;-84
2022/03/03 11:14:43;;;;;;;19.30;9.15;;;4.80;51.30;;;3.08;52.52;101815.56;8471488;27;20491;-85
2022/03/03 11:19:05;;;;;;;18.65;9.15;;;4.90;50.70;;;2.75;52.48;101738.38;8456541;27;20110;-85
2022/03/03 11:23:46;;;;;;;16.80;10.23;;;5.10;51.00;;;3.22;52.82;101799.13;8460442;27;20115;-85
2022/03/03 11:28:15;;;;;;;15.40;8.23;;;5.10;51.30;;;3.26;52.48;101799.06;8467423;27;20592;-85
2022/03/03 11:32:37;;;;;;;17.45;9.07;;;5.20;51.00;;;3.44;52.69;101815.31;8476198;27;20122;-90
2022/03/03 11:37:08;;;;;;;13.88;7.70;;;5.10;51.10;;;3.53;52.74;101825.56;8469535;27;20143;-82
2022/03/03 11:41:51;;;;;;;13.73;8.23;;;5.30;51.20;;;3.48;52.94;101815.28;8477231;27;20118;-88
2022/03/03 11:46:12;;;;;;;14.15;7.18;;;5.30;51.20;;;3.61;52.64;101818.59;8451237;27;20118;-82
2022/03/03 11:50:34;;;;;;;12.95;7.57;;;5.40;50.80;;;3.41;52.57;101776.63;8458318;27;20556;-83
2022/03/03 11:55:00;;;;;;;15.48;7.82;;;5.50;50.80;;;3.69;52.70;101803.88;8473638;27;20121;-83
2022/03/03 11:59:32;;;;;;;;;;;5.50;50.90;;;3.50;52.55;101782.53;8464953;28;20113;-84
2022/03/03 12:04:03;;;;;;;12.32;7.15;;;5.50;50.80;;;3.70;52.69;101815.06;8469794;27;19998;-83
2022/03/03 12:08:31;;;;;;;17.45;8.48;;;5.60;51.10;;;3.67;52.70;101797.03;8437890;27;20114;-82
2022/03/03 12:13:26;;;;;;;15.95;9.43;;;5.60;51.20;;;3.78;52.87;101813.31;8453768;27;20122;-82
2022/03/03 12:17:58;;;;;;;16.60;8.82;;;5.50;51.20;;;3.74;52.94;101794.38;8473949;27;20037;-82
2022/03/03 12:22:25;;;;;;;12.82;7.45;;;5.60;51.40;;;3.82;52.83;101794.31;8448216;27;20121;-82
2022/03/03 12:26:55;;;;;;;15.82;8.45;;;5.70;51.10;;;3.88;52.41;101795.97;8465768;27;20027;-85
2022/03/03 12:31:40;;;;;;;16.92;8.52;;;5.60;51.00;;;3.83;53.07;101793.41;8485341;27;20130;-84
2022/03/03 12:36:06;;;;;;;14.02;8.10;;;5.70;51.50;;;3.85;52.87;101789.09;8467285;27;20049;-82
2022/03/03 12:40:29;;;;;;;16.40;8.07;;;5.70;51.20;;;3.82;52.68;101783.97;8475097;27;20716;-82
2022/03/03 12:44:53;;;;;;;17.70;8.10;;;5.80;51.70;;;3.88;52.80;101781.31;8470868;28;20552;-82
2022/03/03 12:49:15;;;;;;;13.93;7.97;;;5.40;51.30;;;3.49;52.79;101720.59;8478003;27;20126;-81
2022/03/03 12:53:43;;;;;;;10.80;5.68;;;5.70;51.80;;;4.00;52.80;101798.44;8471682;27;20027;-81
2022/03/03 12:58:07;;;;;;;11.68;6.13;;;5.80;51.30;;;4.00;52.92;101803.59;8471602;27;20038;-80
2022/03/03 13:02:29;;;;;;;11.52;5.50;;;5.80;51.50;;;3.91;52.90;101783.84;8451062;27;20126;-80
2022/03/03 13:07:10;;;;;;;12.40;6.03;;;5.60;51.40;;;3.17;53.05;101664.97;8495393;27;20578;-80
2022/03/03 13:11:33;;;;;;;10.82;5.82;;;5.80;51.30;;;3.84;52.73;101781.38;8478266;27;20041;-80
2022/03/03 13:15:55;;;;;;;9.45;4.97;;;5.70;51.30;;;3.97;53.05;101799.31;8480599;27;20039;-80
2022/03/03 13:20:17;;;;;;;10.18;5.35;;;5.80;51.00;;;3.93;53.09;101784.72;8455324;27;20121;-80
2022/03/03 13:24:39;;;;;;;8.27;4.60;;;5.60;51.10;;;3.68;52.86;101737.63;8474873;27;20479;-80
2022/03/03 13:29:01;;;;;;;13.30;5.13;;;5.80;51.20;;;3.91;53.05;101773.53;8489176;27;20138;-80
2022/03/03 13:33:44;;;;;;;10.13;5.20;;;5.70;50.90;;;3.92;53.06;101775.25;8485979;27;20118;-80
2022/03/03 13:38:08;;;;;;;9.70;5.70;;;5.80;51.70;;;3.85;53.15;101763.25;8483160;27;20425;-80
2022/03/03 13:42:29;;;;;;;13.13;7.10;;;5.80;51.10;;;4.03;53.17;101793.22;8480228;27;20117;-80
2022/03/03 13:47:13;;;;;;;15.23;8.00;;;5.80;51.30;;;3.45;53.21;101696.50;8464687;27;20118;-80
2022/03/03 13:51:35;;;;;;;14.75;6.38;;;5.80;52.00;;;3.98;53.12;101784.66;8473131;27;20114;-80
2022/03/03 13:56:02;;;;;;;12.68;6.43;;;5.80;51.70;;;4.10;53.37;101804.34;8479566;27;20035;-80
2022/03/03 14:00:38;;;;;;;10.98;6.45;;;5.80;51.70;;;4.09;53.19;101793.16;8477929;27;20050;-80
2022/03/03 14:05:04;;;;;;;11.13;6.10;;;5.80;51.50;;;3.38;53.27;101679.41;8477013;27;20119;-80
2022/03/03 14:09:26;;;;;;;10.15;5.63;;;5.90;51.20;;;4.18;53.22;101789.59;8492956;27;20045;-80
2022/03/03 14:13:57;;;;;;;13.38;6.78;;;5.90;51.50;;;4.07;53.23;101770.78;8486367;27;20115;-82
2022/03/03 14:18:21;;;;;;;15.25;6.53;;;5.80;51.70;;;4.06;52.98;101762.19;8480059;27;20040;-80
2022/03/03 14:22:42;;;;;;;12.65;6.75;;;6.00;51.40;;;4.24;52.94;101794.72;8465306;27;20031;-80
2022/03/03 14:27:05;;;;;;;10.57;6.10;;;6.10;51.50;;;4.34;53.23;101783.38;8486625;27;20118;-80
2022/03/03 14:31:26;;;;;;;10.63;5.90;;;6.00;51.40;;;4.06;53.36;101735.47;8485640;27;20045;-80
2022/03/03 14:35:51;;;;;;;8.35;5.10;;;5.90;51.10;;;4.38;53.11;101777.31;8492776;27;20146;-80
2022/03/03 14:40:13;;;;;;;11.82;6.05;;;6.10;51.10;;;4.49;52.88;101786.66;8449326;27;20034;-80
2022/03/03 14:44:35;;;;;;;8.90;5.70;;;6.20;51.20;;;4.52;53.31;101786.63;8471996;27;20110;-79
2022/03/03 14:48:56;;;;;;;11.82;6.22;;;6.10;51.20;;;4.05;53.34;101692.41;8463710;27;20065;-80
2022/03/03 14:53:18;;;;;;;9.57;5.32;;;6.30;51.10;;;4.48;53.23;101753.91;8482312;27;20114;-83
2022/03/03 14:57:40;;;;;;;14.73;8.80;;;6.30;51.00;;;4.56;53.32;101760.66;8459313;27;20031;-80
2022/03/03 15:02:09;;;;;;;11.20;6.70;;;6.30;51.30;;;4.58;53.22;101758.94;8463185;27;20045;-79
2022/03/03 15:06:31;;;;;;;9.73;5.85;;;6.30;51.40;;;4.66;53.25;101766.59;8475738;27;20044;-80
2022/03/03 15:10:52;;;;;;;8.50;5.43;;;6.40;51.20;;;4.58;53.25;101721.88;8479844;27;20046;-86
2022/03/03 15:15:14;;;;;;;12.27;5.38;;;6.20;51.00;;;4.65;53.25;101731.25;8476306;27;20039;-79
2022/03/03 15:19:37;;;;;;;10.07;5.13;;;6.50;51.10;;;4.63;53.26;101717.47;8475906;27;20041;-80
2022/03/03 15:23:59;;;;;;;10.98;6.00;;;6.50;51.00;;;4.65;52.96;101713.16;8444563;27;20045;-83
2022/03/03 15:28:20;;;;;;;10.43;6.00;;;6.50;51.10;;;4.64;53.47;101716.59;8465566;27;20474;-80
2022/03/03 15:32:42;;;;;;;9.90;5.88;;;6.60;50.90;;;4.87;53.21;101748.16;8478689;27;20050;-80
2022/03/03 15:37:05;;;;;;;10.73;6.20;;;6.50;50.80;;;4.82;53.41;101736.19;8483090;27;20035;-81
2022/03/03 15:41:26;;;;;;;11.45;6.38;;;6.60;50.90;;;4.91;53.47;101748.97;8471557;27;20035;-81
2022/03/03 15:45:48;;;;;;;8.43;4.88;;;6.60;50.80;;;4.74;53.22;101720.75;8456322;27;20495;-79
2022/03/03 15:50:10;;;;;;;8.63;5.07;;;6.70;50.70;;;4.73;53.32;101713.88;8487994;27;20034;-78
2022/03/03 15:54:32;;;;;;;8.93;5.32;;;6.60;50.80;;;4.94;53.12;101750.66;8483615;27;20043;-78
2022/03/03 15:58:54;;;;;;;8.90;4.95;;;6.70;50.80;;;4.35;53.21;101655.81;8485559;27;20039;-78
2022/03/03 16:03:15;;;;;;;6.93;4.57;;;6.70;50.70;;;4.99;53.07;101774.72;8478352;27;20409;-79
2022/03/03 16:07:38;;;;;;;8.40;5.22;;;6.70;50.60;;;4.80;53.11;101741.34;8471056;27;20038;-79
2022/03/03 16:12:00;;;;;;;7.95;5.15;;;6.70;50.70;;;4.89;53.17;101761.09;8471305;27;20047;-80
2022/03/03 16:16:23;;;;;;;6.07;4.00;;;6.60;50.70;;;4.71;53.17;101730.31;8427257;27;20386;-79
2022/03/03 16:20:45;;;;;;;6.85;4.68;;;6.70;50.60;;;4.94;52.95;101769.66;8446535;27;20500;-78
2022/03/03 16:25:08;;;;;;;7.28;4.60;;;6.70;50.60;;;4.94;53.24;101767.06;8473688;27;20049;-80
2022/03/03 16:29:29;;;;;;;9.13;4.78;;;6.70;50.50;;;4.75;52.92;101742.31;8474307;27;20035;-79
2022/03/03 16:33:51;;;;;;;9.60;5.78;;;6.70;50.50;;;4.94;53.01;101768.75;8461682;27;20054;-80
2022/03/03 16:38:14;;;;;;;10.40;6.25;;;6.70;50.40;;;4.84;53.17;101743.03;8480930;27;20746;-79
2022/03/03 16:42:36;;;;;;;11.25;6.25;;;6.60;50.40;;;4.83;53.14;101751.69;8487908;27;20029;-80
2022/03/03 16:46:58;;;;;;;8.88;5.78;;;6.70;50.40;;;4.87;53.08;101750.75;8470260;27;20780;-79
2022/03/03 16:51:24;;;;;;;7.20;4.97;;;6.70;50.40;;;4.98;53.45;101776.47;8434965;27;20065;-79
2022/03/03 16:55:46;;;;;;;7.82;4.43;;;6.70;50.40;;;5.12;53.13;101798.72;8487172;27;20031;-79
2022/03/03 17:00:09;;;;;;;9.32;5.50;;;6.90;50.40;;;4.78;52.95;101745.72;8474632;27;20041;-79
2022/03/03 17:04:31;;;;;;;9.52;5.40;;;6.80;50.30;;;4.99;53.13;101782.50;8476755;27;20532;-79
2022/03/03 17:08:53;;;;;;;6.82;4.88;;;6.80;50.30;;;4.92;53.37;101773.13;8435582;27;20047;-79
2022/03/03 17:13:15;;;;;;;6.88;5.30;;;6.80;50.30;;;5.05;53.05;101791.03;8478586;27;20043;-79
2022/03/03 17:17:36;;;;;;;6.43;4.70;;;6.80;50.30;;;5.10;52.84;101796.13;8488642;27;20039;-79
2022/03/03 17:22:00;;;;;;;7.68;5.22;;;6.80;50.30;;;4.91;52.93;101780.03;8455796;27;20031;-79
2022/03/03 17:26:21;;;;;;;7.88;5.30;;;6.80;50.20;;;5.07;52.93;101814.31;8449976;27;20035;-79
2022/03/03 17:30:43;;;;;;;11.20;4.82;;;6.70;50.20;;;5.04;53.22;101804.00;8462183;27;20035;-79
2022/03/03 17:35:06;;;;;;;10.50;5.03;;;6.80;50.30;;;5.02;53.32;101798.88;8466999;27;20035;-79
2022/03/03 17:39:28;;;;;;;9.50;5.78;;;6.80;50.30;;;5.08;53.06;101808.25;8486339;27;20038;-79
2022/03/03 17:43:52;;;;;;;5.53;4.57;;;6.70;50.20;;;5.10;52.96;101817.72;8485134;27;20046;-79
2022/03/03 17:48:14;;;;;;;8.18;5.32;;;6.80;50.20;;;5.00;53.09;101794.59;8441481;27;20039;-88
2022/03/03 17:52:36;;;;;;;6.60;4.95;;;6.80;50.30;;;4.97;53.19;101789.44;8443032;27;20042;-78
2022/03/03 17:56:58;;;;;;;6.85;4.70;;;6.80;50.30;;;4.98;53.29;101809.28;8470318;27;20039;-80
2022/03/03 18:01:19;;;;;;;7.15;5.38;;;6.80;50.30;;;5.04;53.45;101827.28;8434401;27;20030;-78
2022/03/03 18:05:45;;;;;;;6.28;4.93;;;6.70;50.20;;;4.78;53.25;101783.66;8478146;27;20770;-78
2022/03/03 18:10:08;;;;;;;7.72;4.70;;;6.70;50.10;;;4.86;53.27;101803.41;8468417;27;20039;-78
2022/03/03 18:14:30;;;;;;;6.50;4.82;;;6.70;50.10;;;4.86;53.05;101808.56;8458905;27;20499;-77
2022/03/03 18:18:52;;;;;;;5.03;3.80;;;6.60;50.00;;;4.85;52.84;101813.75;8487459;27;20035;-78
2022/03/03 18:23:15;;;;;;;6.95;4.07;;;6.50;49.90;;;4.71;53.13;101798.44;8454814;27;20670;-78
2022/03/03 18:27:37;;;;;;;5.28;3.25;;;6.60;49.90;;;4.79;53.16;101827.63;8465965;27;20045;-77